createdAt,value
2024-02-24T00:00:39.222Z,99697.16
2024-02-24T00:03:05.853Z,99703.38
2024-02-24T00:05:32.454Z,99701.38
2024-02-24T00:07:59.060Z,99689.59
2024-02-24T00:10:25.721Z,99639.81
2024-02-24T00:12:52.557Z,99650.47
2024-02-24T00:15:19.176Z,99701.81
2024-02-24T00:17:45.855Z,99700.47
2024-02-24T00:20:12.856Z,99692.75
2024-02-24T00:22:39.561Z,99693.31
2024-02-24T00:25:06.627Z,99694.00
2024-02-24T00:27:33.234Z,99642.75
2024-02-24T00:30:00.710Z,99700.81
2024-02-24T00:32:27.335Z,99631.47
2024-02-24T00:34:54.040Z,99686.25
2024-02-24T00:37:20.630Z,99699.19
2024-02-24T00:39:47.303Z,99692.13
2024-02-24T00:42:13.925Z,99691.13
2024-02-24T00:44:40.730Z,99698.66
2024-02-24T00:47:07.526Z,99701.38
2024-02-24T00:49:34.158Z,99693.44
2024-02-24T00:52:00.816Z,99706.44
2024-02-24T00:54:27.366Z,99715.13
2024-02-24T00:56:54.397Z,99703.38
2024-02-24T00:59:21.608Z,99703.25
2024-02-24T01:01:48.243Z,99658.69
2024-02-24T01:04:14.933Z,99662.59
2024-02-24T01:06:41.544Z,99658.59
2024-02-24T01:09:08.337Z,99691.81
2024-02-24T01:11:35.154Z,99682.41
2024-02-24T01:14:02.174Z,99681.59
2024-02-24T01:16:28.904Z,99673.59
2024-02-24T01:18:55.583Z,99715.78
2024-02-24T01:21:22.636Z,99708.59
2024-02-24T01:23:49.272Z,99713.13
2024-02-24T01:26:15.887Z,99715.25
2024-02-24T01:28:43.190Z,99630.81
2024-02-24T01:31:09.858Z,99665.97
2024-02-24T01:33:36.552Z,99724.53
2024-02-24T01:36:03.334Z,99719.72
2024-02-24T01:38:29.994Z,99734.94
2024-02-24T01:40:56.684Z,99732.78
2024-02-24T01:43:28.166Z,99718.41
2024-02-24T01:45:56.658Z,99694.53
2024-02-24T01:48:23.891Z,99716.97
2024-02-24T01:55:55.654Z,99698.94
2024-02-24T01:58:23.665Z,99706.69
2024-02-24T02:00:51.698Z,99692.97
2024-02-24T02:03:18.443Z,99721.94
2024-02-24T02:05:45.152Z,99728.59
2024-02-24T02:08:11.814Z,99726.63
2024-02-24T02:10:54.109Z,99714.31
2024-02-24T02:13:21.728Z,99730.41
2024-02-24T02:15:51.813Z,99669.03
2024-02-24T02:18:18.716Z,99722.66
2024-02-24T02:20:51.477Z,99735.53
2024-02-24T02:23:18.300Z,99708.44
2024-02-24T02:25:45.238Z,99737.50
2024-02-24T02:28:11.900Z,99746.16
2024-02-24T02:30:38.556Z,99717.91
2024-02-24T02:33:10.596Z,99744.44
2024-02-24T02:35:37.698Z,99736.69
2024-02-24T02:38:09.590Z,99724.38
2024-02-24T02:40:37.043Z,99718.16
2024-02-24T02:43:04.066Z,99738.38
2024-02-24T02:45:30.687Z,99749.25
2024-02-24T02:47:57.469Z,99749.94
2024-02-24T02:50:24.193Z,99745.16
2024-02-24T02:52:50.850Z,99682.72
2024-02-24T02:55:19.496Z,99745.16
2024-02-24T02:57:46.244Z,99745.31
2024-02-24T03:00:13.599Z,99740.47
2024-02-24T03:02:40.226Z,99735.13
2024-02-24T03:05:07.336Z,99752.06
2024-02-24T03:07:34.051Z,99759.41
2024-02-24T03:10:00.709Z,99694.88
2024-02-24T03:12:27.421Z,99723.41
2024-02-24T03:14:54.266Z,99692.19
2024-02-24T03:17:20.916Z,99741.38
2024-02-24T03:19:47.509Z,99742.59
2024-02-24T03:22:14.070Z,99750.69
2024-02-24T03:24:44.384Z,99763.66
2024-02-24T03:27:14.225Z,99767.63
2024-02-24T03:29:41.305Z,99760.97
2024-02-24T03:32:08.252Z,99767.06
2024-02-24T03:34:35.034Z,99712.94
2024-02-24T03:37:01.640Z,99753.78
2024-02-24T03:39:28.234Z,99760.28
2024-02-24T03:41:55.190Z,99759.44
2024-02-24T03:44:21.911Z,99762.41
2024-02-24T03:46:48.528Z,99760.00
2024-02-24T03:49:15.206Z,99761.13
2024-02-24T03:51:41.870Z,99720.84
2024-02-24T03:54:08.535Z,99763.38
2024-02-24T03:56:35.153Z,99758.59
2024-02-24T03:59:02.703Z,99758.84
2024-02-24T04:01:29.418Z,99759.84
2024-02-24T04:03:56.149Z,99768.75
2024-02-24T04:06:22.959Z,99735.41
2024-02-24T04:08:49.738Z,99761.81
2024-02-24T04:11:16.587Z,99719.00
2024-02-24T04:13:43.345Z,99770.41
2024-02-24T04:16:10.269Z,99782.88
2024-02-24T04:18:37.063Z,99737.09
2024-02-24T04:21:03.913Z,99785.56
2024-02-24T04:23:30.601Z,99789.63
2024-02-24T04:25:57.208Z,99774.09
2024-02-24T04:28:23.866Z,99743.28
2024-02-24T04:30:50.522Z,99785.13
2024-02-24T04:33:18.807Z,99784.41
2024-02-24T04:35:45.723Z,99778.75
2024-02-24T04:38:12.459Z,99789.78
2024-02-24T04:40:39.083Z,99789.78
2024-02-24T04:43:05.684Z,99780.00
2024-02-24T04:45:32.741Z,99782.59
2024-02-24T04:47:59.794Z,99773.94
2024-02-24T04:50:26.858Z,99784.84
2024-02-24T04:52:53.609Z,99787.41
2024-02-24T04:55:20.338Z,99765.63
2024-02-24T04:57:47.142Z,99772.13
2024-02-24T05:00:14.195Z,99740.47
2024-02-24T05:02:40.875Z,99797.16
2024-02-24T05:05:07.847Z,99795.59
2024-02-24T05:07:34.739Z,99747.00
2024-02-24T05:10:01.501Z,99761.09
2024-02-24T05:12:28.177Z,99809.56
2024-02-24T05:14:54.867Z,99761.25
2024-02-24T05:17:21.662Z,99779.03
2024-02-24T05:19:48.545Z,99795.56
2024-02-24T05:22:15.157Z,99803.59
2024-02-24T05:24:42.989Z,99818.59
2024-02-24T05:27:09.773Z,99779.56
2024-02-24T05:29:36.446Z,99819.56
2024-02-24T05:32:03.166Z,99828.22
2024-02-24T05:34:29.941Z,99777.94
2024-02-24T05:36:56.562Z,99771.13
2024-02-24T05:39:23.206Z,99793.50
2024-02-24T05:41:51.453Z,99847.09
2024-02-24T05:44:18.765Z,99795.25
2024-02-24T05:46:45.586Z,99830.44
2024-02-24T05:49:12.204Z,99822.31
2024-02-24T05:51:41.090Z,99830.38
2024-02-24T05:54:07.794Z,99798.75
2024-02-24T05:56:34.634Z,99841.41
2024-02-24T05:59:04.224Z,99809.56
2024-02-24T06:01:30.858Z,99842.75
2024-02-24T06:03:57.778Z,99828.34
2024-02-24T06:06:24.529Z,99838.94
2024-02-24T06:08:51.197Z,99762.22
2024-02-24T06:11:20.557Z,99818.34
2024-02-24T06:13:53.998Z,99847.03
2024-02-24T06:16:20.746Z,99825.84
2024-02-24T06:18:47.537Z,99557.94
2024-02-24T06:21:16.781Z,99856.09
2024-02-24T06:23:43.463Z,99845.19
2024-02-24T06:26:10.041Z,99866.84
2024-02-24T06:28:36.830Z,99863.00
2024-02-24T06:31:05.768Z,99806.31
2024-02-24T06:33:33.050Z,99862.59
2024-02-24T06:36:00.147Z,99860.19
2024-02-24T06:38:26.867Z,99802.50
2024-02-24T06:40:53.658Z,99821.41
2024-02-24T06:43:20.542Z,99871.72
2024-02-24T06:45:47.146Z,99875.31
2024-02-24T06:48:13.944Z,99874.31
2024-02-24T06:50:40.759Z,99872.63
2024-02-24T06:53:07.408Z,99878.28
2024-02-24T06:55:33.998Z,99831.59
2024-02-24T06:58:00.762Z,99852.38
2024-02-24T07:00:27.428Z,99868.50
2024-02-24T07:02:55.959Z,99821.00
2024-02-24T07:05:22.891Z,99833.44
2024-02-24T07:07:49.692Z,99889.72
2024-02-24T07:10:16.335Z,99892.25
2024-02-24T07:12:43.964Z,99841.06
2024-02-24T07:15:11.634Z,99860.31
2024-02-24T07:17:38.377Z,99888.19
2024-02-24T07:20:05.518Z,99895.81
2024-02-24T07:22:32.262Z,99898.78
2024-02-24T07:24:58.932Z,99877.56
2024-02-24T07:27:25.663Z,99897.91
2024-02-24T07:29:52.363Z,99899.75
2024-02-24T07:32:19.119Z,99875.03
2024-02-24T07:34:45.954Z,99885.31
2024-02-24T07:37:12.828Z,99901.44
2024-02-24T07:39:39.455Z,99906.66
2024-02-24T07:42:06.234Z,99906.53
2024-02-24T07:44:32.884Z,99891.94
2024-02-24T07:46:59.526Z,99894.19
2024-02-24T07:49:26.154Z,99867.22
2024-02-24T07:51:52.959Z,99856.06
2024-02-24T07:54:19.545Z,99913.88
2024-02-24T07:56:46.778Z,99840.63
2024-02-24T07:59:14.570Z,99915.69
2024-02-24T08:01:41.432Z,99910.03
2024-02-24T08:04:08.022Z,99925.75
2024-02-24T08:06:34.902Z,99927.63
2024-02-24T08:09:02.441Z,99930.75
2024-02-24T08:11:31.398Z,99932.97
2024-02-24T08:13:58.155Z,99929.97
2024-02-24T08:16:25.021Z,99894.31
2024-02-24T08:18:52.164Z,99925.19
2024-02-24T08:21:18.905Z,99914.31
2024-02-24T08:23:45.797Z,99943.19
2024-02-24T08:26:12.536Z,99925.38
2024-02-24T08:28:39.426Z,99931.25
2024-02-24T08:31:06.115Z,99953.69
2024-02-24T08:33:33.032Z,99926.16
2024-02-24T08:36:01.653Z,99944.41
2024-02-24T08:38:29.268Z,99905.09
2024-02-24T08:40:58.720Z,99926.09
2024-02-24T08:43:25.389Z,99941.41
2024-02-24T08:45:52.022Z,99926.00
2024-02-24T08:48:18.754Z,99938.72
2024-02-24T08:50:45.458Z,99904.53
2024-02-24T08:53:12.222Z,99919.69
2024-02-24T08:55:39.781Z,99884.75
2024-02-24T08:58:06.449Z,99883.09
2024-02-24T09:00:33.684Z,99894.97
2024-02-24T09:03:00.462Z,99871.41
2024-02-24T09:05:27.323Z,99930.41
2024-02-24T09:07:54.069Z,99891.84
2024-02-24T09:10:20.713Z,99933.25
2024-02-24T09:12:47.463Z,99930.34
2024-02-24T09:15:14.101Z,99948.75
2024-02-24T09:17:40.880Z,99951.50
2024-02-24T09:20:10.227Z,99943.22
2024-02-24T09:22:37.283Z,99943.38
2024-02-24T09:25:04.226Z,99960.56
2024-02-24T09:27:31.092Z,99959.38
2024-02-24T09:29:57.670Z,99938.00
2024-02-24T09:32:24.369Z,99914.75
2024-02-24T09:34:51.143Z,99970.31
2024-02-24T09:37:17.825Z,99936.19
2024-02-24T09:39:44.469Z,99948.72
2024-02-24T09:42:12.298Z,99909.47
2024-02-24T09:44:40.200Z,99955.31
2024-02-24T09:47:07.165Z,99947.25
2024-02-24T09:49:34.128Z,99927.38
2024-02-24T09:52:01.367Z,99950.50
2024-02-24T09:54:29.333Z,99947.22
2024-02-24T09:56:57.096Z,99927.75
2024-02-24T09:59:24.404Z,99953.16
2024-02-24T10:01:53.982Z,99944.31
2024-02-24T10:04:21.222Z,99934.88
2024-02-24T10:06:47.884Z,99931.78
2024-02-24T10:09:14.534Z,99934.50
2024-02-24T10:11:41.928Z,99931.06
2024-02-24T10:14:09.537Z,99956.31
2024-02-24T10:16:38.093Z,99955.44
2024-02-24T10:19:06.568Z,99909.69
2024-02-24T10:21:34.346Z,99938.03
2024-02-24T10:24:01.708Z,99898.03
2024-02-24T10:26:28.965Z,99891.38
2024-02-24T10:28:56.110Z,99923.97
2024-02-24T10:31:24.793Z,99924.16
2024-02-24T10:33:52.227Z,99928.03
2024-02-24T10:36:19.237Z,99932.66
2024-02-24T10:38:55.595Z,99921.47
2024-02-24T10:41:26.789Z,99940.19
2024-02-24T10:44:06.148Z,99961.06
2024-02-24T10:46:44.480Z,99941.81
2024-02-24T10:49:12.900Z,99919.41
2024-02-24T10:51:40.073Z,99958.78
2024-02-24T10:54:22.069Z,99926.66
2024-02-24T10:56:53.621Z,99935.38
2024-02-24T10:59:29.818Z,99946.09
2024-02-24T11:02:15.028Z,99977.56
2024-02-24T11:04:41.730Z,99949.22
2024-02-24T11:07:17.032Z,99965.72
2024-02-24T11:09:49.394Z,99942.44
2024-02-24T11:12:16.307Z,99957.19
2024-02-24T11:14:47.358Z,99968.63
2024-02-24T11:17:48.130Z,99969.28
2024-02-24T11:20:40.740Z,99970.06
2024-02-24T11:23:24.898Z,99965.69
2024-02-24T11:26:10.686Z,99958.44
2024-02-24T11:28:38.487Z,99911.59
2024-02-24T11:31:05.735Z,99946.59
2024-02-24T11:33:37.146Z,99876.69
2024-02-24T11:36:05.491Z,99960.41
2024-02-24T11:38:33.232Z,99965.41
2024-02-24T11:41:07.369Z,99986.31
2024-02-24T11:43:34.510Z,99972.09
2024-02-24T11:46:02.520Z,99953.66
2024-02-24T11:48:29.359Z,99918.34
2024-02-24T11:50:56.607Z,99921.78
2024-02-24T11:53:24.400Z,99958.44
2024-02-24T11:55:51.374Z,99943.41
2024-02-24T11:58:19.278Z,99913.41
2024-02-24T12:00:47.048Z,99969.63
2024-02-24T12:03:16.180Z,99953.94
2024-02-24T12:05:43.965Z,99959.91
2024-02-24T12:08:14.333Z,99966.25
2024-02-24T12:10:41.527Z,99964.50
2024-02-24T12:13:11.499Z,99936.91
2024-02-24T12:15:44.746Z,99939.22
2024-02-24T12:18:12.409Z,99940.84
2024-02-24T12:20:40.202Z,99944.19
2024-02-24T12:23:11.100Z,99949.00
2024-02-24T12:25:38.386Z,99944.97
2024-02-24T12:28:06.509Z,99952.91
2024-02-24T12:30:38.429Z,99978.06
2024-02-24T12:33:05.892Z,99933.91
2024-02-24T12:35:33.693Z,99975.56
2024-02-24T12:38:00.529Z,99915.13
2024-02-24T12:40:31.270Z,99962.41
2024-02-24T12:42:59.508Z,99974.06
2024-02-24T12:45:27.217Z,99981.91
2024-02-24T12:47:54.504Z,99974.03
2024-02-24T12:50:23.398Z,99981.72
2024-02-24T12:52:52.166Z,99957.75
2024-02-24T12:55:18.911Z,99964.56
2024-02-24T12:57:47.281Z,99968.59
2024-02-24T13:00:14.514Z,99929.19
2024-02-24T13:02:41.600Z,99972.75
2024-02-24T13:05:08.741Z,99956.03
2024-02-24T13:07:35.676Z,99940.88
2024-02-24T13:10:02.732Z,99948.00
2024-02-24T13:12:29.826Z,99977.34
2024-02-24T13:14:56.654Z,99974.53
2024-02-24T13:17:23.520Z,99964.97
2024-02-24T13:19:52.865Z,99978.72
2024-02-24T13:22:20.663Z,99972.28
2024-02-24T13:24:47.308Z,99971.75
2024-02-24T13:27:14.075Z,99981.31
2024-02-24T13:29:40.869Z,99996.06
2024-02-24T13:32:08.058Z,99928.41
2024-02-24T13:34:34.781Z,99969.75
2024-02-24T13:37:01.577Z,99846.31
2024-02-24T13:39:28.361Z,99958.44
2024-02-24T13:41:55.657Z,99994.13
2024-02-24T13:44:22.721Z,99954.44
2024-02-24T13:46:50.017Z,99979.69
2024-02-24T13:49:19.602Z,100007.44
2024-02-24T13:51:47.273Z,99977.00
2024-02-24T13:54:13.905Z,99979.38
2024-02-24T13:56:41.347Z,100004.25
2024-02-24T13:59:09.448Z,99998.81
2024-02-24T14:01:36.699Z,100004.78
2024-02-24T14:04:03.830Z,100001.50
2024-02-24T14:06:30.723Z,100003.84
2024-02-24T14:08:57.592Z,100023.69
2024-02-24T14:11:24.802Z,99990.88
2024-02-24T14:13:52.231Z,99999.66
2024-02-24T14:16:19.671Z,100016.38
2024-02-24T14:18:47.261Z,99996.28
2024-02-24T14:21:14.396Z,100013.66
2024-02-24T14:23:41.469Z,99997.84
2024-02-24T14:26:08.219Z,100022.16
2024-02-24T14:28:34.990Z,100009.47
2024-02-24T14:31:01.620Z,99982.25
2024-02-24T14:33:28.614Z,100027.59
2024-02-24T14:35:55.444Z,100036.91
2024-02-24T14:38:22.416Z,100027.03
2024-02-24T14:40:53.369Z,100020.50
2024-02-24T14:43:20.223Z,100030.00
2024-02-24T14:45:46.849Z,100028.09
2024-02-24T14:48:13.674Z,99953.31
2024-02-24T14:50:41.892Z,99977.84
2024-02-24T14:53:08.585Z,100004.25
2024-02-24T14:55:35.602Z,100018.47
2024-02-24T14:58:02.402Z,100009.00
2024-02-24T15:00:29.139Z,100010.13
2024-02-24T15:03:08.494Z,100038.75
2024-02-24T15:05:37.326Z,100004.41
2024-02-24T15:08:04.552Z,100034.19
2024-02-24T15:10:31.238Z,100037.41
2024-02-24T15:12:57.918Z,100041.63
2024-02-24T15:15:24.669Z,100038.59
2024-02-24T15:17:53.933Z,100037.94
2024-02-24T15:20:21.067Z,100023.16
2024-02-24T15:22:49.695Z,100041.28
2024-02-24T15:25:16.560Z,100048.25
2024-02-24T15:27:43.735Z,100046.38
2024-02-24T15:30:11.448Z,100037.91
2024-02-24T15:32:38.706Z,99992.44
2024-02-24T15:35:06.239Z,100046.88
2024-02-24T15:37:35.484Z,99988.28
2024-02-24T15:40:08.730Z,100002.31
2024-02-24T15:42:36.741Z,100052.56
2024-02-24T15:45:04.536Z,100070.72
2024-02-24T15:47:31.453Z,100114.47
2024-02-24T15:49:58.298Z,100064.63
2024-02-24T15:52:25.006Z,100074.53
2024-02-24T15:54:51.802Z,100072.03
2024-02-24T15:57:18.487Z,99991.94
2024-02-24T15:59:45.361Z,99927.22
2024-02-24T16:02:12.038Z,99920.06
2024-02-24T16:04:38.817Z,100013.59
2024-02-24T16:07:06.994Z,100044.13
2024-02-24T16:09:36.216Z,100062.75
2024-02-24T16:12:03.551Z,99941.50
2024-02-24T16:14:30.494Z,100085.69
2024-02-24T16:16:57.194Z,100117.16
2024-02-24T16:19:24.099Z,100063.84
2024-02-24T16:21:50.841Z,100132.59
2024-02-24T16:24:17.442Z,100128.66
2024-02-24T16:26:44.051Z,100091.31
2024-02-24T16:29:10.732Z,100131.81
2024-02-24T16:31:37.331Z,100088.88
2024-02-24T16:34:04.187Z,100150.66
2024-02-24T16:36:31.636Z,100136.97
2024-02-24T16:38:58.482Z,100145.03
2024-02-24T16:41:25.185Z,100167.44
2024-02-24T16:43:51.802Z,100164.22
2024-02-24T16:46:18.495Z,100019.31
2024-02-24T16:48:45.457Z,100153.69
2024-02-24T16:51:12.204Z,100129.06
2024-02-24T16:53:38.909Z,100185.13
2024-02-24T16:56:05.945Z,100176.25
2024-02-24T16:58:33.146Z,100161.50
2024-02-24T17:00:59.961Z,100193.22
2024-02-24T17:03:28.033Z,100138.69
2024-02-24T17:05:54.991Z,100182.47
2024-02-24T17:08:21.795Z,100165.16
2024-02-24T17:10:48.403Z,100173.41
2024-02-24T17:13:15.189Z,100160.94
2024-02-24T17:15:41.890Z,100172.41
2024-02-24T17:18:17.548Z,100189.28
2024-02-24T17:20:45.314Z,100163.91
2024-02-24T17:23:13.648Z,100219.47
2024-02-24T17:25:40.340Z,100210.66
2024-02-24T17:28:08.341Z,100148.19
2024-02-24T17:30:37.171Z,100220.16
2024-02-24T17:33:05.390Z,100205.13
2024-02-24T17:35:32.572Z,100220.56
2024-02-24T17:38:00.079Z,100232.38
2024-02-24T17:40:26.739Z,100194.56
2024-02-24T17:42:53.355Z,100224.69
2024-02-24T17:45:20.039Z,100256.16
2024-02-24T17:47:46.778Z,100254.19
2024-02-24T17:50:13.471Z,100268.78
2024-02-24T17:52:40.127Z,100248.13
2024-02-24T17:55:07.093Z,100233.84
2024-02-24T17:57:33.689Z,100144.94
2024-02-24T18:00:01.479Z,100252.53
2024-02-24T18:02:28.497Z,100192.59
2024-02-24T18:04:55.175Z,100189.22
2024-02-24T18:07:21.808Z,100214.34
2024-02-24T18:09:48.433Z,100248.59
2024-02-24T18:12:15.229Z,100217.13
2024-02-24T18:14:44.062Z,100166.56
2024-02-24T18:17:13.297Z,100244.53
2024-02-24T18:19:39.970Z,100246.66
2024-02-24T18:22:06.637Z,100220.56
2024-02-24T18:24:33.238Z,100259.28
2024-02-24T18:27:00.001Z,100297.81
2024-02-24T18:29:27.927Z,100261.81
2024-02-24T18:31:54.663Z,100295.66
2024-02-24T18:34:21.969Z,100316.16
2024-02-24T18:36:48.711Z,100301.72
2024-02-24T18:39:15.432Z,100228.38
2024-02-24T18:41:42.070Z,100294.88
2024-02-24T18:44:08.833Z,100284.50
2024-02-24T18:46:35.466Z,100243.88
2024-02-24T18:49:02.262Z,100253.56
2024-02-24T18:51:29.284Z,100310.38
2024-02-24T18:53:55.959Z,100289.44
2024-02-24T18:56:22.657Z,100296.16
2024-02-24T18:58:50.120Z,100305.53
2024-02-24T19:01:17.277Z,100304.47
2024-02-24T19:03:44.064Z,100305.50
2024-02-24T19:06:11.648Z,100320.34
2024-02-24T19:08:38.903Z,100334.28
2024-02-24T19:11:05.742Z,100329.72
2024-02-24T19:13:32.385Z,100321.63
2024-02-24T19:15:59.054Z,100292.38
2024-02-24T19:18:25.861Z,100318.47
2024-02-24T19:20:52.575Z,100272.03
2024-02-24T19:23:19.350Z,100304.09
2024-02-24T19:25:46.050Z,100288.94
2024-02-24T19:28:12.879Z,100323.28
2024-02-24T19:30:39.518Z,100268.56
2024-02-24T19:33:06.529Z,100333.84
2024-02-24T19:35:33.400Z,100329.97
2024-02-24T19:38:00.120Z,100334.50
2024-02-24T19:40:26.768Z,100231.13
2024-02-24T19:42:53.459Z,100313.66
2024-02-24T19:45:20.224Z,100310.25
2024-02-24T19:47:47.005Z,100327.03
2024-02-24T19:50:13.688Z,100339.44
2024-02-24T19:52:44.477Z,100326.31
2024-02-24T19:55:11.238Z,100286.06
2024-02-24T19:57:37.942Z,100333.31
2024-02-24T20:00:05.333Z,100339.41
2024-02-24T20:02:32.042Z,100268.66
2024-02-24T20:04:58.751Z,100342.19
2024-02-24T20:07:25.521Z,100303.06
2024-02-24T20:09:52.831Z,100329.59
2024-02-24T20:12:20.004Z,100345.03
2024-02-24T20:14:50.622Z,100344.22
2024-02-24T20:17:18.756Z,100332.16
2024-02-24T20:19:47.403Z,100326.72
2024-02-24T20:22:14.354Z,100311.38
2024-02-24T20:24:41.010Z,100330.59
2024-02-24T20:27:07.770Z,100341.94
2024-02-24T20:29:36.355Z,100336.00
2024-02-24T20:32:03.165Z,100235.22
2024-02-24T20:34:29.942Z,100360.63
2024-02-24T20:36:56.683Z,100366.56
2024-02-24T20:39:23.271Z,100389.22
2024-02-24T20:41:49.961Z,100391.19
2024-02-24T20:44:18.623Z,100389.97
2024-02-24T20:46:46.376Z,100218.53
2024-02-24T20:49:17.297Z,100407.19
2024-02-24T20:51:44.087Z,100399.63
2024-02-24T20:54:10.757Z,100327.41
2024-02-24T20:56:37.425Z,100399.13
2024-02-24T20:59:04.090Z,100391.44
2024-02-24T21:01:30.871Z,100397.16
2024-02-24T21:03:57.977Z,100409.16
2024-02-24T21:06:26.327Z,100413.00
2024-02-24T21:08:53.580Z,100397.28
2024-02-24T21:11:20.372Z,100409.25
2024-02-24T21:13:47.117Z,100407.56
2024-02-24T21:16:13.816Z,100378.25
2024-02-24T21:18:40.894Z,100337.94
2024-02-24T21:21:08.170Z,100356.84
2024-02-24T21:23:38.535Z,100338.84
2024-02-24T21:26:07.212Z,100365.72
2024-02-24T21:28:33.907Z,100394.16
2024-02-24T21:31:00.516Z,100406.88
2024-02-24T21:33:27.145Z,100407.13
2024-02-24T21:35:53.937Z,100306.16
2024-02-24T21:38:20.548Z,100418.16
2024-02-24T21:40:47.179Z,100405.09
2024-02-24T21:43:13.908Z,100369.72
2024-02-24T21:45:40.627Z,100395.00
2024-02-24T21:48:07.806Z,100418.94
2024-02-24T21:50:34.445Z,100378.66
2024-02-24T21:53:01.132Z,100370.31
2024-02-24T21:55:27.765Z,100417.91
2024-02-24T21:57:54.415Z,100422.78
2024-02-24T22:00:21.541Z,100425.19
2024-02-24T22:02:48.366Z,100380.50
2024-02-24T22:05:15.101Z,100390.56
2024-02-24T22:07:42.246Z,100405.66
2024-02-24T22:10:10.097Z,100346.31
2024-02-24T22:12:36.991Z,100408.84
2024-02-24T22:15:04.003Z,100389.38
2024-02-24T22:17:30.765Z,100382.09
2024-02-24T22:19:57.429Z,100422.75
2024-02-24T22:22:24.048Z,100382.91
2024-02-24T22:24:50.700Z,100433.28
2024-02-24T22:27:17.480Z,100438.56
2024-02-24T22:29:44.541Z,100436.34
2024-02-24T22:32:11.255Z,100440.03
2024-02-24T22:34:37.951Z,100436.22
2024-02-24T22:37:04.713Z,100445.38
2024-02-24T22:39:31.388Z,100369.03
2024-02-24T22:41:58.106Z,100440.22
2024-02-24T22:44:24.810Z,100438.41
2024-02-24T22:46:51.511Z,100449.75
2024-02-24T22:49:18.302Z,100411.59
2024-02-24T22:51:44.993Z,100374.53
2024-02-24T22:54:12.095Z,100443.31
2024-02-24T22:56:39.266Z,100403.75
2024-02-24T22:59:06.036Z,100453.09
2024-02-24T23:01:32.691Z,100412.81
2024-02-24T23:04:02.386Z,100452.44
2024-02-24T23:06:29.160Z,100425.88
2024-02-24T23:08:56.946Z,100457.19
2024-02-24T23:11:30.164Z,100444.41
2024-02-24T23:14:04.153Z,100445.56
2024-02-24T23:16:30.889Z,100460.47
2024-02-24T23:19:01.121Z,100466.38
2024-02-24T23:21:30.690Z,100467.34
2024-02-24T23:23:58.454Z,100468.56
2024-02-24T23:26:25.201Z,100403.78
2024-02-24T23:28:51.816Z,100437.19
2024-02-24T23:31:18.460Z,100404.78
2024-02-24T23:33:45.249Z,100415.22
2024-02-24T23:36:12.004Z,100466.34
2024-02-24T23:38:38.754Z,100468.44
2024-02-24T23:41:05.451Z,100458.81
2024-02-24T23:43:32.065Z,100451.81
2024-02-24T23:45:58.754Z,100466.13
2024-02-24T23:48:25.500Z,100461.88
2024-02-24T23:50:52.325Z,100447.31
2024-02-24T23:53:18.906Z,100463.88
2024-02-24T23:55:45.582Z,100451.34
2024-02-24T23:58:13.070Z,100408.19
